createdAt,value
2023-05-09T00:00:24.984Z,86.86
2023-05-09T00:01:25.073Z,82.30
2023-05-09T00:02:25.238Z,85.82
2023-05-09T00:03:25.323Z,86.56
2023-05-09T00:04:25.406Z,83.37
2023-05-09T00:05:25.444Z,81.69
2023-05-09T00:06:25.504Z,82.86
2023-05-09T00:07:25.548Z,80.89
2023-05-09T00:08:25.647Z,85.17
2023-05-09T00:09:25.722Z,81.88
2023-05-09T00:10:25.787Z,82.54
2023-05-09T00:11:25.872Z,82.97
2023-05-09T00:12:26.907Z,85.42
2023-05-09T00:13:26.099Z,84.93
2023-05-09T00:14:26.084Z,83.53
2023-05-09T00:15:26.167Z,83.10
2023-05-09T00:16:26.299Z,82.74
2023-05-09T00:17:26.385Z,83.67
2023-05-09T00:18:26.428Z,81.84
2023-05-09T00:19:26.587Z,81.53
2023-05-09T00:20:26.600Z,82.15
2023-05-09T00:21:26.667Z,81.27
2023-05-09T00:22:26.758Z,82.48
2023-05-09T00:23:26.841Z,83.38
2023-05-09T00:24:26.910Z,81.11
2023-05-09T00:25:27.002Z,79.53
2023-05-09T00:26:27.131Z,81.03
2023-05-09T00:27:27.161Z,80.82
2023-05-09T00:28:27.251Z,80.76
2023-05-09T00:29:27.311Z,81.48
2023-05-09T00:30:27.427Z,80.02
2023-05-09T00:31:27.632Z,81.00
2023-05-09T00:32:27.622Z,79.85
2023-05-09T00:33:27.669Z,80.43
2023-05-09T00:34:27.758Z,80.13
2023-05-09T00:35:27.945Z,82.56
2023-05-09T00:36:27.932Z,81.50
2023-05-09T00:37:28.015Z,78.23
2023-05-09T00:38:28.109Z,80.61
2023-05-09T00:39:28.176Z,79.29
2023-05-09T00:40:28.271Z,80.12
2023-05-09T00:41:28.377Z,81.18
2023-05-09T00:42:28.449Z,82.10
2023-05-09T00:43:28.530Z,80.30
2023-05-09T00:44:28.601Z,78.31
2023-05-09T00:45:28.694Z,82.02
2023-05-09T00:46:28.858Z,80.69
2023-05-09T00:47:28.932Z,79.86
2023-05-09T00:48:28.956Z,82.96
2023-05-09T00:49:29.049Z,81.64
2023-05-09T00:50:29.196Z,81.61
2023-05-09T00:51:29.324Z,84.19
2023-05-09T00:52:29.334Z,82.10
2023-05-09T00:53:29.417Z,78.33
2023-05-09T00:54:29.531Z,79.01
2023-05-09T00:55:29.598Z,81.58
2023-05-09T00:56:29.667Z,79.78
2023-05-09T00:57:29.775Z,80.09
2023-05-09T00:58:29.838Z,80.78
2023-05-09T00:59:29.922Z,79.93
2023-05-09T01:00:30.064Z,82.24
2023-05-09T01:01:30.170Z,78.67
2023-05-09T01:02:30.298Z,80.04
2023-05-09T01:03:30.416Z,80.37
2023-05-09T01:04:30.416Z,80.67
2023-05-09T01:05:30.482Z,80.97
2023-05-09T01:06:30.551Z,80.22
2023-05-09T01:07:30.717Z,80.19
2023-05-09T01:08:30.733Z,78.32
2023-05-09T01:09:30.812Z,79.20
2023-05-09T01:10:30.880Z,79.07
2023-05-09T01:11:30.979Z,77.94
2023-05-09T01:12:31.076Z,79.33
2023-05-09T01:13:31.151Z,78.95
2023-05-09T01:14:31.270Z,78.43
2023-05-09T01:15:31.340Z,79.55
2023-05-09T01:16:31.485Z,77.60
2023-05-09T01:17:31.537Z,76.67
2023-05-09T01:18:31.625Z,78.53
2023-05-09T01:19:31.705Z,79.43
2023-05-09T01:20:31.793Z,78.64
2023-05-09T01:21:31.887Z,79.47
2023-05-09T01:22:32.005Z,80.33
2023-05-09T01:23:32.206Z,79.96
2023-05-09T01:24:32.155Z,77.38
2023-05-09T01:25:32.228Z,78.58
2023-05-09T01:26:32.323Z,78.38
2023-05-09T01:27:32.349Z,80.77
2023-05-09T01:28:32.475Z,79.33
2023-05-09T01:29:32.520Z,76.81
2023-05-09T01:30:32.593Z,77.86
2023-05-09T01:31:32.663Z,76.86
2023-05-09T01:32:32.746Z,77.23
2023-05-09T01:33:32.803Z,79.16
2023-05-09T01:34:32.841Z,77.34
2023-05-09T01:35:32.925Z,80.64
2023-05-09T01:36:33.040Z,80.70
2023-05-09T01:37:33.104Z,75.17
2023-05-09T01:38:33.173Z,76.05
2023-05-09T01:39:33.331Z,76.10
2023-05-09T01:40:33.317Z,76.64
2023-05-09T01:41:33.413Z,75.48
2023-05-09T01:42:33.488Z,78.22
2023-05-09T01:43:33.637Z,77.38
2023-05-09T01:44:33.540Z,74.01
2023-05-09T01:45:33.657Z,77.42
2023-05-09T01:46:33.711Z,77.91
2023-05-09T01:47:33.801Z,75.95
2023-05-09T01:48:33.806Z,78.36
2023-05-09T01:49:33.873Z,75.52
2023-05-09T01:50:33.951Z,76.43
2023-05-09T01:51:33.970Z,75.59
2023-05-09T01:52:34.064Z,80.10
2023-05-09T01:53:34.076Z,76.93
2023-05-09T01:54:34.132Z,77.79
2023-05-09T01:55:34.314Z,77.06
2023-05-09T01:56:34.246Z,77.41
2023-05-09T01:57:34.278Z,80.15
2023-05-09T01:58:34.345Z,76.89
2023-05-09T01:59:34.428Z,78.83
2023-05-09T02:00:34.559Z,77.19
2023-05-09T02:01:34.607Z,77.37
2023-05-09T02:02:34.793Z,80.58
2023-05-09T02:03:34.753Z,77.89
2023-05-09T02:04:34.855Z,77.81
2023-05-09T02:05:34.935Z,76.96
2023-05-09T02:06:34.998Z,77.21
2023-05-09T02:07:35.039Z,76.23
2023-05-09T02:08:35.069Z,76.34
2023-05-09T02:09:35.102Z,78.37
2023-05-09T02:10:35.170Z,75.99
2023-05-09T02:11:35.293Z,77.63
2023-05-09T02:12:35.244Z,77.05
2023-05-09T02:13:35.294Z,75.56
2023-05-09T02:14:35.351Z,75.42
2023-05-09T02:15:35.428Z,77.50
2023-05-09T02:16:35.502Z,78.58
2023-05-09T02:17:35.580Z,77.01
2023-05-09T02:18:35.604Z,78.75
2023-05-09T02:19:35.693Z,78.22
2023-05-09T02:20:35.727Z,80.37
2023-05-09T02:21:35.763Z,79.52
2023-05-09T02:22:35.830Z,78.00
2023-05-09T02:23:35.894Z,80.10
2023-05-09T02:24:35.965Z,78.54
2023-05-09T02:25:35.996Z,78.13
2023-05-09T02:26:36.074Z,77.48
2023-05-09T02:27:36.209Z,78.15
2023-05-09T02:28:36.182Z,78.95
2023-05-09T02:29:36.217Z,74.90
2023-05-09T02:30:36.281Z,76.67
2023-05-09T02:31:36.401Z,81.11
2023-05-09T02:32:36.393Z,75.31
2023-05-09T02:33:36.399Z,78.26
2023-05-09T02:34:36.489Z,78.67
2023-05-09T02:35:36.488Z,75.25
2023-05-09T02:36:36.519Z,77.28
2023-05-09T02:37:36.601Z,75.69
2023-05-09T02:38:36.604Z,76.26
2023-05-09T02:39:36.690Z,75.79
2023-05-09T02:40:36.746Z,77.77
2023-05-09T02:41:36.771Z,75.71
2023-05-09T02:42:36.831Z,76.55
2023-05-09T02:43:36.939Z,77.81
2023-05-09T02:44:36.883Z,77.80
2023-05-09T02:45:36.925Z,74.40
2023-05-09T02:46:36.999Z,75.96
2023-05-09T02:47:37.108Z,77.08
2023-05-09T02:48:37.108Z,78.78
2023-05-09T02:49:39.014Z,80.91
2023-05-09T02:50:37.173Z,77.05
2023-05-09T02:51:37.272Z,77.54
2023-05-09T02:52:37.337Z,77.88
2023-05-09T02:53:37.455Z,78.16
2023-05-09T02:54:37.541Z,78.31
2023-05-09T02:55:37.624Z,78.65
2023-05-09T02:56:37.695Z,76.35
2023-05-09T02:57:37.787Z,77.09
2023-05-09T02:58:37.889Z,77.03
2023-05-09T02:59:38.101Z,79.27
2023-05-09T03:00:38.068Z,75.98
2023-05-09T03:01:38.221Z,78.09
2023-05-09T03:02:38.514Z,77.47
2023-05-09T03:03:38.435Z,76.48
2023-05-09T03:04:38.446Z,78.16
2023-05-09T03:05:38.564Z,78.49
2023-05-09T03:06:38.637Z,76.68
2023-05-09T03:07:38.707Z,75.87
2023-05-09T03:08:38.816Z,76.91
2023-05-09T03:09:41.087Z,75.58
2023-05-09T03:10:39.012Z,79.33
2023-05-09T03:11:39.081Z,76.64
2023-05-09T03:12:39.310Z,77.85
2023-05-09T03:13:39.296Z,77.43
2023-05-09T03:14:39.372Z,75.93
2023-05-09T03:15:39.579Z,74.04
2023-05-09T03:16:39.581Z,77.36
2023-05-09T03:17:39.646Z,76.04
2023-05-09T03:18:39.781Z,75.76
2023-05-09T03:19:39.854Z,76.23
2023-05-09T03:20:39.959Z,75.44
2023-05-09T03:21:40.035Z,75.50
2023-05-09T03:22:40.114Z,73.15
2023-05-09T03:23:40.228Z,76.92
2023-05-09T03:24:40.290Z,73.30
2023-05-09T03:25:40.342Z,75.47
2023-05-09T03:26:40.393Z,73.22
2023-05-09T03:27:40.514Z,77.24
2023-05-09T03:28:40.613Z,74.37
2023-05-09T03:29:40.678Z,74.68
2023-05-09T03:30:40.760Z,76.02
2023-05-09T03:31:40.998Z,73.26
2023-05-09T03:32:40.947Z,73.96
2023-05-09T03:33:41.026Z,74.12
2023-05-09T03:34:41.044Z,75.46
2023-05-09T03:35:41.123Z,76.12
2023-05-09T03:36:41.205Z,75.09
2023-05-09T03:37:41.235Z,74.12
2023-05-09T03:38:41.338Z,74.49
2023-05-09T03:39:41.399Z,75.85
2023-05-09T03:40:41.477Z,74.04
2023-05-09T03:41:41.544Z,73.87
2023-05-09T03:42:41.565Z,73.61
2023-05-09T03:43:41.654Z,74.47
2023-05-09T03:44:41.728Z,75.18
2023-05-09T03:45:41.836Z,74.46
2023-05-09T03:46:41.962Z,74.27
2023-05-09T03:47:42.100Z,76.34
2023-05-09T03:48:42.079Z,76.53
2023-05-09T03:49:42.131Z,75.58
2023-05-09T03:50:42.199Z,76.07
2023-05-09T03:51:42.388Z,75.88
2023-05-09T03:52:42.349Z,74.51
2023-05-09T03:53:42.444Z,71.31
2023-05-09T03:54:42.522Z,74.85
2023-05-09T03:55:43.458Z,74.33
2023-05-09T03:56:42.679Z,74.97
2023-05-09T03:57:42.743Z,77.45
2023-05-09T03:58:42.804Z,79.89
2023-05-09T03:59:42.863Z,76.46
2023-05-09T04:00:42.938Z,75.73
2023-05-09T04:01:42.992Z,79.09
2023-05-09T04:02:43.156Z,76.04
2023-05-09T04:03:43.288Z,75.52
2023-05-09T04:04:43.235Z,74.59
2023-05-09T04:05:43.259Z,73.62
2023-05-09T04:06:43.426Z,75.32
2023-05-09T04:07:43.460Z,76.49
2023-05-09T04:08:43.561Z,74.98
2023-05-09T04:09:43.645Z,75.05
2023-05-09T04:10:43.685Z,76.81
2023-05-09T04:11:43.691Z,76.42
2023-05-09T04:12:43.764Z,76.62
2023-05-09T04:13:43.738Z,77.19
2023-05-09T04:14:44.281Z,76.60
2023-05-09T04:15:43.751Z,75.40
2023-05-09T04:16:43.772Z,75.52
2023-05-09T04:17:43.815Z,76.92
2023-05-09T04:18:43.828Z,76.41
2023-05-09T04:19:43.936Z,76.84
2023-05-09T04:20:43.858Z,75.10
2023-05-09T04:21:43.866Z,75.47
2023-05-09T04:22:46.109Z,75.63
2023-05-09T04:23:43.964Z,76.63
2023-05-09T04:24:43.940Z,77.41
2023-05-09T04:25:43.975Z,76.66
2023-05-09T04:26:43.948Z,78.63
2023-05-09T04:27:43.976Z,74.25
2023-05-09T04:28:44.017Z,77.03
2023-05-09T04:29:44.025Z,78.44
2023-05-09T04:30:44.112Z,78.08
2023-05-09T04:31:44.202Z,78.13
2023-05-09T04:32:44.126Z,79.57
2023-05-09T04:33:44.079Z,78.09
2023-05-09T04:34:44.107Z,77.63
2023-05-09T04:35:44.158Z,78.21
2023-05-09T04:36:44.160Z,76.39
2023-05-09T04:37:44.162Z,78.55
2023-05-09T04:38:44.258Z,77.52
2023-05-09T04:39:44.248Z,79.51
2023-05-09T04:40:44.272Z,78.62
2023-05-09T04:41:44.276Z,78.82
2023-05-09T04:42:44.293Z,79.16
2023-05-09T04:43:44.273Z,80.74
2023-05-09T04:44:44.302Z,76.49
2023-05-09T04:45:44.336Z,79.02
2023-05-09T04:46:44.414Z,79.29
2023-05-09T04:47:44.379Z,79.46
2023-05-09T04:48:44.405Z,76.96
2023-05-09T04:49:44.401Z,79.98
2023-05-09T04:50:44.408Z,79.00
2023-05-09T04:51:44.514Z,79.66
2023-05-09T04:52:44.457Z,78.51
2023-05-09T04:53:44.464Z,78.07
2023-05-09T04:54:44.482Z,79.90
2023-05-09T04:55:44.494Z,81.02
2023-05-09T04:56:44.527Z,79.55
2023-05-09T04:57:44.544Z,80.57
2023-05-09T04:58:44.523Z,79.52
2023-05-09T04:59:44.563Z,79.42
2023-05-09T05:00:44.563Z,79.82
2023-05-09T05:01:44.606Z,80.07
2023-05-09T05:02:44.639Z,79.84
2023-05-09T05:03:44.637Z,78.05
2023-05-09T05:04:44.753Z,79.31
2023-05-09T05:05:44.707Z,80.72
2023-05-09T05:06:44.675Z,79.66
2023-05-09T05:07:44.749Z,81.34
2023-05-09T05:08:44.694Z,80.97
2023-05-09T05:09:44.708Z,79.59
2023-05-09T05:10:44.709Z,78.86
2023-05-09T05:11:57.063Z,79.45
2023-05-09T05:12:45.759Z,79.79
2023-05-09T05:13:44.762Z,80.29
2023-05-09T05:14:44.753Z,81.15
2023-05-09T05:15:44.819Z,81.41
2023-05-09T05:16:44.787Z,81.53
2023-05-09T05:17:44.840Z,84.81
2023-05-09T05:18:44.803Z,83.03
2023-05-09T05:19:44.821Z,81.78
2023-05-09T05:20:44.825Z,80.47
2023-05-09T05:21:44.859Z,81.24
2023-05-09T05:22:44.896Z,80.64
2023-05-09T05:23:44.997Z,81.13
2023-05-09T05:24:44.906Z,80.91
2023-05-09T05:25:44.949Z,79.25
2023-05-09T05:26:44.970Z,82.75
2023-05-09T05:27:44.964Z,81.20
2023-05-09T05:28:44.988Z,83.74
2023-05-09T05:29:44.983Z,80.58
2023-05-09T05:30:45.019Z,81.61
2023-05-09T05:31:45.079Z,82.94
2023-05-09T05:32:45.102Z,82.26
2023-05-09T05:33:45.076Z,81.97
2023-05-09T05:34:45.101Z,82.35
2023-05-09T05:35:45.158Z,84.40
2023-05-09T05:36:45.171Z,75.20
2023-05-09T05:37:46.078Z,83.93
2023-05-09T05:38:45.532Z,84.07
2023-05-09T05:39:45.371Z,93.01
2023-05-09T05:40:45.325Z,88.31
2023-05-09T05:41:45.322Z,94.76
2023-05-09T05:42:45.379Z,104.93
2023-05-09T05:43:45.524Z,92.35
2023-05-09T05:44:45.422Z,106.99
2023-05-09T05:45:45.456Z,109.21
2023-05-09T05:46:45.462Z,112.16
2023-05-09T05:47:45.527Z,114.33
2023-05-09T05:48:46.026Z,113.50
2023-05-09T05:49:45.624Z,127.57
2023-05-09T05:50:45.620Z,128.26
2023-05-09T05:51:45.705Z,136.10
2023-05-09T05:52:45.709Z,146.36
2023-05-09T05:53:46.027Z,145.39
2023-05-09T05:54:45.803Z,145.18
2023-05-09T05:55:45.946Z,150.21
2023-05-09T05:56:45.904Z,157.64
2023-05-09T05:57:45.963Z,166.64
2023-05-09T05:58:46.021Z,174.28
2023-05-09T05:59:46.097Z,181.92
2023-05-09T06:00:46.370Z,188.01
2023-05-09T06:01:46.320Z,192.09
2023-05-09T06:02:46.462Z,198.12
2023-05-09T06:03:46.498Z,204.38
2023-05-09T06:04:46.510Z,208.60
2023-05-09T06:05:46.570Z,215.13
2023-05-09T06:06:46.613Z,217.59
2023-05-09T06:07:46.694Z,225.68
2023-05-09T06:08:46.770Z,233.98
2023-05-09T06:09:46.814Z,239.20
2023-05-09T06:10:46.856Z,243.25
2023-05-09T06:11:47.008Z,247.05
2023-05-09T06:12:47.012Z,244.16
2023-05-09T06:13:47.525Z,224.04
2023-05-09T06:14:47.121Z,211.09
2023-05-09T06:15:47.198Z,206.22
2023-05-09T06:16:47.269Z,216.31
2023-05-09T06:17:47.395Z,214.75
2023-05-09T06:18:47.448Z,217.18
2023-05-09T06:19:47.506Z,209.42
2023-05-09T06:20:47.568Z,206.13
2023-05-09T06:21:47.634Z,204.79
2023-05-09T06:22:47.686Z,224.42
2023-05-09T06:24:05.941Z,218.77
2023-05-09T06:24:48.775Z,210.41
2023-05-09T06:25:47.775Z,205.63
2023-05-09T06:26:47.826Z,208.86
2023-05-09T06:27:47.942Z,196.09
2023-05-09T06:28:47.857Z,196.07
2023-05-09T06:29:47.868Z,188.46
2023-05-09T06:30:47.867Z,185.81
2023-05-09T06:31:47.967Z,199.24
2023-05-09T06:32:47.945Z,204.22
2023-05-09T06:33:47.952Z,208.86
2023-05-09T06:34:47.962Z,194.19
2023-05-09T06:35:48.058Z,212.54
2023-05-09T06:36:48.115Z,199.98
2023-05-09T06:37:48.814Z,208.70
2023-05-09T06:38:48.539Z,215.22
2023-05-09T06:39:48.330Z,221.39
2023-05-09T06:40:48.400Z,224.02
2023-05-09T06:41:48.498Z,208.86
2023-05-09T06:42:48.539Z,200.13
2023-05-09T06:43:49.916Z,207.21
2023-05-09T06:44:48.696Z,223.27
2023-05-09T06:45:48.825Z,211.02
2023-05-09T06:46:48.923Z,168.16
2023-05-09T06:47:49.026Z,163.02
2023-05-09T06:48:49.068Z,147.22
2023-05-09T06:49:49.096Z,118.26
2023-05-09T06:50:49.133Z,115.26
2023-05-09T06:51:49.191Z,106.93
2023-05-09T06:52:49.215Z,141.46
2023-05-09T06:53:49.254Z,144.15
2023-05-09T06:54:49.283Z,151.83
2023-05-09T06:55:49.322Z,158.47
2023-05-09T06:56:49.363Z,182.94
2023-05-09T06:57:49.402Z,199.03
2023-05-09T06:58:49.558Z,207.62
2023-05-09T06:59:49.580Z,217.27
2023-05-09T07:00:49.569Z,230.77
2023-05-09T07:01:49.750Z,234.67
2023-05-09T07:02:49.765Z,238.17
2023-05-09T07:03:49.853Z,246.28
2023-05-09T07:04:49.968Z,250.03
2023-05-09T07:05:50.014Z,247.70
2023-05-09T07:06:50.058Z,248.81
2023-05-09T07:07:50.179Z,239.79
2023-05-09T07:08:50.205Z,231.77
2023-05-09T07:09:52.935Z,216.60
2023-05-09T07:10:51.298Z,216.08
2023-05-09T07:11:50.316Z,200.92
2023-05-09T07:12:50.374Z,204.17
2023-05-09T07:13:50.398Z,203.43
2023-05-09T07:14:50.413Z,202.67
2023-05-09T07:15:50.594Z,201.07
2023-05-09T07:16:50.519Z,209.22
2023-05-09T07:17:50.475Z,200.56
2023-05-09T07:18:50.539Z,196.77
2023-05-09T07:19:50.526Z,186.13
2023-05-09T07:20:50.610Z,176.88
2023-05-09T07:21:50.657Z,176.09
2023-05-09T07:22:50.890Z,174.90
2023-05-09T07:23:50.909Z,177.71
2023-05-09T07:24:50.969Z,169.20
2023-05-09T07:25:51.037Z,189.21
2023-05-09T07:26:51.165Z,184.69
2023-05-09T07:27:51.219Z,179.03
2023-05-09T07:28:51.346Z,185.98
2023-05-09T07:29:51.408Z,190.80
2023-05-09T07:30:51.495Z,189.61
2023-05-09T07:31:51.718Z,190.77
2023-05-09T07:32:51.705Z,180.22
2023-05-09T07:33:51.776Z,180.94
2023-05-09T07:34:51.825Z,171.33
2023-05-09T07:35:51.906Z,180.01
2023-05-09T07:36:52.048Z,198.42
2023-05-09T07:37:52.127Z,207.30
2023-05-09T07:38:52.214Z,187.53
2023-05-09T07:39:52.275Z,185.93
2023-05-09T07:40:52.375Z,167.13
2023-05-09T07:41:52.454Z,142.41
2023-05-09T07:42:52.554Z,128.06
2023-05-09T07:43:53.132Z,124.82
2023-05-09T07:44:52.661Z,93.53
2023-05-09T07:45:52.692Z,112.49
2023-05-09T07:46:52.756Z,89.14
2023-05-09T07:47:52.978Z,89.84
2023-05-09T07:48:52.840Z,76.26
2023-05-09T07:49:52.914Z,64.16
2023-05-09T07:50:52.978Z,55.88
2023-05-09T07:51:53.046Z,55.83
2023-05-09T07:52:53.109Z,65.04
2023-05-09T07:53:53.188Z,71.93
2023-05-09T07:54:53.260Z,81.54
2023-05-09T07:55:53.334Z,87.66
2023-05-09T07:56:53.350Z,97.03
2023-05-09T07:57:53.436Z,100.71
2023-05-09T07:58:55.575Z,104.78
2023-05-09T07:59:53.495Z,113.80
2023-05-09T08:00:53.520Z,109.42
2023-05-09T08:01:53.622Z,115.97
2023-05-09T08:02:53.659Z,115.98
2023-05-09T08:03:53.890Z,119.58
2023-05-09T08:04:53.689Z,113.84
2023-05-09T08:05:53.766Z,123.16
2023-05-09T08:06:53.848Z,120.55
2023-05-09T08:07:53.959Z,125.79
2023-05-09T08:08:54.040Z,130.77
2023-05-09T08:09:54.127Z,135.44
2023-05-09T08:10:54.228Z,134.68
2023-05-09T08:11:54.307Z,135.89
2023-05-09T08:12:54.424Z,134.35
2023-05-09T08:13:54.467Z,140.32
2023-05-09T08:14:54.575Z,137.34
2023-05-09T08:15:54.735Z,127.74
2023-05-09T08:16:54.750Z,114.03
2023-05-09T08:17:54.934Z,108.36
2023-05-09T08:18:54.913Z,108.23
2023-05-09T08:19:55.026Z,104.33
2023-05-09T08:20:55.081Z,118.89
2023-05-09T08:21:55.165Z,113.17
2023-05-09T08:22:55.285Z,110.48
2023-05-09T08:23:55.317Z,113.30
2023-05-09T08:24:55.422Z,105.05
2023-05-09T08:25:55.486Z,115.04
2023-05-09T08:26:55.599Z,118.63
2023-05-09T08:27:55.668Z,122.00
2023-05-09T08:28:55.758Z,115.54
2023-05-09T08:29:55.820Z,116.11
2023-05-09T08:30:55.923Z,135.95
2023-05-09T08:31:56.158Z,158.73
